Disney Magic — C6PT7 — position and weather

sailwx.info

Track history (hours):
 
Tides and Currents Weather Stations Pressure Air Temp Water Temp Dewpoint Dewpoint Depression Visibility Wind Speed Wind Dir Waves Ship Positions

Disney Magic

Last reported at 2015-Jan-31 11:00 UTC. Time now 2015-Feb-01 13:15 UTC.
Position N 25°48' W 077°24'.

Type: Passenger vessel. MMSI: 308516000.

Wind from 030 at 20 knots

Waves 1.5 meters (5 feet), 5 second period

Barometer 1018.0 mb
Air temperature 21.0 ° C
Visibility: greater than 10.8 NM
Dewpoint 16.4 ° C
Water temperature 24.5 ° C

Date/timePositionNaut miles runAvg speedWind from/ knotsBaromVisibWave heightAir tempDewpointWater temp
2015-Jan-31 11:00N 25°48' W 077°24'18616.9 030 / 201018.010.8 1.521.016.424.5
2015-Jan-31 00:00N 23°54' W 074°42'23719.8 360 / 151018.010.8 0.522.015.826.0
2015-Jan-30 12:00N 20°00' W 074°00'   020 / 181015.010.8 1.025.020.727.3
2015-Jan-27 22:25N 20°33' W 086°57'3 3.0
2015-Jan-27 21:32N 20°31' W 086°57'0 0.0
2015-Jan-27 20:32N 20°31' W 086°57'0 0.0
2015-Jan-27 19:32N 20°31' W 086°57'0 0.0
2015-Jan-27 18:32N 20°31' W 086°57'0 0.0
2015-Jan-27 17:32N 20°31' W 086°57'0 0.0
2015-Jan-27 16:32N 20°31' W 086°57'0 0.0
2015-Jan-27 15:32N 20°31' W 086°57'0 0.0
2015-Jan-27 14:29N 20°31' W 086°57'0 0.0
2015-Jan-27 13:29N 20°31' W 086°57'4412.5
2015-Jan-27 10:00N 20°54' W 086°18'42917.4 330 / 201017.010.8 1.022.213.927.0
2015-Jan-26 09:16N 25°12' W 080°05'1918.0
2015-Jan-26 08:14N 25°30' W 080°00'1217.7
2015-Jan-26 07:33N 25°42' W 079°58'1818.1
2015-Jan-26 06:33N 25°60' W 079°57'1918.7
2015-Jan-26 05:33N 26°19' W 079°56'1919.3
2015-Jan-26 04:34N 26°38' W 079°56'1918.5
2015-Jan-26 03:33N 26°57' W 079°55'36 1.7
2015-Jan-25 06:14N 27°33' W 079°52'1319.3
2015-Jan-25 05:33N 27°21' W 079°44'84 3.8
2015-Jan-24 07:30N 26°01' W 079°19'1818.8
2015-Jan-24 06:33N 25°45' W 079°27'10118.1
2015-Jan-24 01:00N 24°18' W 080°24'23017.7 140 / 151015.010.8 1.025.022.226.7
2015-Jan-23 12:00N 22°54' W 084°18'20218.7 140 / 171015.0 5.4 1.025.522.027.0
2015-Jan-23 01:09N 20°35' W 086°56'4 6.9
2015-Jan-23 00:31N 20°31' W 086°57'0 0.0
2015-Jan-22 23:31N 20°31' W 086°57'0 0.0
2015-Jan-22 22:31N 20°31' W 086°57'0 0.0
2015-Jan-22 21:25N 20°31' W 086°57'0 0.0
2015-Jan-22 20:25N 20°31' W 086°57'0 0.0
2015-Jan-22 19:28N 20°31' W 086°57'0 0.0
2015-Jan-22 18:28N 20°31' W 086°57'0 0.0
2015-Jan-22 17:28N 20°31' W 086°57'0 0.0
2015-Jan-22 16:28N 20°31' W 086°57'0 0.0
2015-Jan-22 15:28N 20°31' W 086°57'2 2.4
2015-Jan-22 14:32N 20°33' W 086°57'2013.0
2015-Jan-22 13:00N 20°36' W 086°36'1817.9 140 / 121015.010.8 0.525.021.427.5
2015-Jan-22 12:00N 20°30' W 086°18'   140 / 121015.010.8 0.524.021.127.5
Track history (hours):
 
Tides and Currents Weather Stations Pressure Air Temp Water Temp Dewpoint Dewpoint Depression Visibility Wind Speed Wind Dir Waves Ship Positions

Disney Magic

Last reported at 2015-Jan-31 11:00 UTC. Time now 2015-Feb-01 13:15 UTC.
Position N 25°48' W 077°24'.

Type: Passenger vessel. MMSI: 308516000.

Wind from 030 at 20 knots

Waves 1.5 meters (5 feet), 5 second period

Barometer 1018.0 mb
Air temperature 21.0 ° C
Visibility: greater than 10.8 NM
Dewpoint 16.4 ° C
Water temperature 24.5 ° C

Date/timePositionNaut miles runAvg speedWind from/ knotsBaromVisibWave heightAir tempDewpointWater temp
2015-Jan-31 11:00N 25°48' W 077°24'18616.9 030 / 201018.010.8 1.521.016.424.5
2015-Jan-31 00:00N 23°54' W 074°42'23719.8 360 / 151018.010.8 0.522.015.826.0
2015-Jan-30 12:00N 20°00' W 074°00'   020 / 181015.010.8 1.025.020.727.3
2015-Jan-27 22:25N 20°33' W 086°57'3 3.0
2015-Jan-27 21:32N 20°31' W 086°57'0 0.0
2015-Jan-27 20:32N 20°31' W 086°57'0 0.0
2015-Jan-27 19:32N 20°31' W 086°57'0 0.0
2015-Jan-27 18:32N 20°31' W 086°57'0 0.0
2015-Jan-27 17:32N 20°31' W 086°57'0 0.0
2015-Jan-27 16:32N 20°31' W 086°57'0 0.0
2015-Jan-27 15:32N 20°31' W 086°57'0 0.0
2015-Jan-27 14:29N 20°31' W 086°57'0 0.0
2015-Jan-27 13:29N 20°31' W 086°57'4412.5
2015-Jan-27 10:00N 20°54' W 086°18'42917.4 330 / 201017.010.8 1.022.213.927.0
2015-Jan-26 09:16N 25°12' W 080°05'1918.0
2015-Jan-26 08:14N 25°30' W 080°00'1217.7
2015-Jan-26 07:33N 25°42' W 079°58'1818.1
2015-Jan-26 06:33N 25°60' W 079°57'1918.7
2015-Jan-26 05:33N 26°19' W 079°56'1919.3
2015-Jan-26 04:34N 26°38' W 079°56'1918.5
2015-Jan-26 03:33N 26°57' W 079°55'36 1.7
2015-Jan-25 06:14N 27°33' W 079°52'1319.3
2015-Jan-25 05:33N 27°21' W 079°44'84 3.8
2015-Jan-24 07:30N 26°01' W 079°19'1818.8
2015-Jan-24 06:33N 25°45' W 079°27'10118.1
2015-Jan-24 01:00N 24°18' W 080°24'23017.7 140 / 151015.010.8 1.025.022.226.7
2015-Jan-23 12:00N 22°54' W 084°18'20218.7 140 / 171015.0 5.4 1.025.522.027.0
2015-Jan-23 01:09N 20°35' W 086°56'4 6.9
2015-Jan-23 00:31N 20°31' W 086°57'0 0.0
2015-Jan-22 23:31N 20°31' W 086°57'0 0.0
2015-Jan-22 22:31N 20°31' W 086°57'0 0.0
2015-Jan-22 21:25N 20°31' W 086°57'0 0.0
2015-Jan-22 20:25N 20°31' W 086°57'0 0.0
2015-Jan-22 19:28N 20°31' W 086°57'0 0.0
2015-Jan-22 18:28N 20°31' W 086°57'0 0.0
2015-Jan-22 17:28N 20°31' W 086°57'0 0.0
2015-Jan-22 16:28N 20°31' W 086°57'0 0.0
2015-Jan-22 15:28N 20°31' W 086°57'2 2.4
2015-Jan-22 14:32N 20°33' W 086°57'2013.0
2015-Jan-22 13:00N 20°36' W 086°36'1817.9 140 / 121015.010.8 0.525.021.427.5
2015-Jan-22 12:00N 20°30' W 086°18'   140 / 121015.010.8 0.524.021.127.5

Dump ship's entire track history